• Join FlightAware (Why Join?)
  • Login
  • US Flag 
03:22AM EDT


 

Airport Tracker/Info


-or-


 

Live Flight TrackerFlight Track Log ✈ EJA941 ✈ 27-Apr-2013 ✈ KVGC - KTEB

Flight Track Log - Related Links

Times and Time Zones

All times are in EDT time to prevent confusion due to time zone crossing. See the EJA941 flight status page for this flight to view local times or setup timezone preferences in your user account.

Time Position Orientation Groundspeed Altitude Reporting Facility
EDT Latitude Longitude Course Direction KTS MPH feet Rate Location/Type
01:47PM 42.7333 -75.7589 198° South 364 419 10,000  Level Boston Center
01:47PM 42.6569 -75.7378 169° South 422 486 10,200 1,320 Climbing Boston Center
01:48PM 42.5567 -75.6678 153° Southeast 422 486 12,400 2,160 Climbing Boston Center
01:49PM 42.4506 -75.5917 152° Southeast 422 486 14,600 1,200 Climbing Boston Center
01:50PM 42.3442 -75.5133 151° Southeast 427 491 14,900 240 Climbing Boston Center
01:51PM 42.2256 -75.4261 151° Southeast 427 491 15,100 60 Climbing Boston Center
01:52PM 42.1169 -75.3539 154° Southeast 432 497 15,100 -60 Level Boston Center
01:53PM 42.0364 -75.2439 135° Southeast 417 480 15,000 -60 Descending Boston Center
01:54PM 41.9814 -75.0989 117° Southeast 411 473 15,000  Level Boston Center
01:55PM 41.9303 -74.9656 117° Southeast 435 501 15,000 -420 Level Boston Center
01:56PM 41.8714 -74.8072 116° Southeast 435 501 14,200 -1,200 Descending Boston Center
01:57PM 41.8217 -74.6828 118° Southeast 435 501 12,600 -1,740 Descending Boston Center
01:58PM 41.7594 -74.5664 126° Southeast 382 440 10,800 -1,800 Descending Boston Center
01:59PM 41.6867 -74.5444 167° South 301 346 9,000 -1,500 Descending Boston Center
02:00PM 41.6033 -74.5556 186° South 285 328 7,800 -1,200 Descending Boston Center
02:01PM 41.5319 -74.5700 189° South 279 321 6,600 -720 Descending Boston Center
02:03PM 41.4000 -74.6000 190° South 270 311 6,000 -300 Descending New York TRACON
02:04PM 41.3167 -74.6167 189° South 276 318 5,900 -600 Descending New York TRACON
02:05PM 41.2500 -74.6167 180° South 263 303 4,800 -960 Descending New York TRACON
02:06PM 41.1833 -74.6000 169° South 259 298 4,000 -420 Descending New York TRACON
02:07PM 41.1167 -74.6000 180° South 260 299 4,000  Level New York TRACON
02:08PM 41.0333 -74.6000 180° South 260 299 4,000 -240 Level New York TRACON
02:09PM 40.9667 -74.5667 159° South 262 302 3,600 -540 Descending New York TRACON
02:10PM 40.9167 -74.5000 135° Southeast 252 290 3,000 -360 Descending New York TRACON
02:11PM 40.8667 -74.4333 135° Southeast 259 298 3,000  Level New York TRACON
02:12PM 40.8167 -74.3833 143° Southeast 253 291 3,000 -240 Level New York TRACON
02:13PM 40.7667 -74.3333 143° Southeast 215 247 2,600 -540 Descending New York TRACON
02:14PM 40.7333 -74.2833 131° Southeast 198 228 2,000 -600 Descending New York TRACON